sensor_id;sensor_type;location;lat;lon;timestamp;pressure;altitude;pressure_sealevel;temperature;humidity
56681;BME280;42558;52.388;13.390;2022-10-16T00:01:42;100682.38;;;13.17;100.00
56681;BME280;42558;52.388;13.390;2022-10-16T00:04:09;100685.20;;;13.15;100.00
56681;BME280;42558;52.388;13.390;2022-10-16T00:06:37;100690.36;;;13.21;100.00
56681;BME280;42558;52.388;13.390;2022-10-16T00:09:04;100691.77;;;13.23;100.00
56681;BME280;42558;52.388;13.390;2022-10-16T00:11:38;100701.65;;;13.20;100.00
56681;BME280;42558;52.388;13.390;2022-10-16T00:14:13;100707.48;;;13.21;100.00
56681;BME280;42558;52.388;13.390;2022-10-16T00:16:41;100702.19;;;13.21;100.00
56681;BME280;42558;52.388;13.390;2022-10-16T00:19:11;100698.32;;;13.27;100.00
56681;BME280;42558;52.388;13.390;2022-10-16T00:21:38;100693.05;;;13.48;100.00
56681;BME280;42558;52.388;13.390;2022-10-16T00:24:08;100694.45;;;13.45;100.00
56681;BME280;42558;52.388;13.390;2022-10-16T00:26:37;100693.39;;;13.48;100.00
56681;BME280;42558;52.388;13.390;2022-10-16T00:29:07;100702.41;;;13.52;100.00
56681;BME280;42558;52.388;13.390;2022-10-16T00:31:34;100708.75;;;13.50;100.00
56681;BME280;42558;52.388;13.390;2022-10-16T00:34:01;100715.31;;;13.52;100.00
56681;BME280;42558;52.388;13.390;2022-10-16T00:36:28;100715.64;;;13.56;100.00
56681;BME280;42558;52.388;13.390;2022-10-16T00:38:57;100721.14;;;13.62;100.00
56681;BME280;42558;52.388;13.390;2022-10-16T00:41:31;100722.73;;;13.62;100.00
56681;BME280;42558;52.388;13.390;2022-10-16T00:44:02;100719.89;;;13.55;100.00
56681;BME280;42558;52.388;13.390;2022-10-16T00:46:41;100711.94;;;13.54;100.00
56681;BME280;42558;52.388;13.390;2022-10-16T00:49:17;100715.30;;;13.68;100.00
56681;BME280;42558;52.388;13.390;2022-10-16T00:51:48;100715.48;;;13.71;100.00
56681;BME280;42558;52.388;13.390;2022-10-16T00:54:31;100718.31;;;13.65;100.00
56681;BME280;42558;52.388;13.390;2022-10-16T00:57:04;100718.84;;;13.61;100.00
56681;BME280;42558;52.388;13.390;2022-10-16T00:59:39;100726.61;;;13.58;100.00
56681;BME280;42558;52.388;13.390;2022-10-16T01:02:10;100725.38;;;13.52;100.00
56681;BME280;42558;52.388;13.390;2022-10-16T01:04:46;100721.83;;;13.51;100.00
56681;BME280;42558;52.388;13.390;2022-10-16T01:13:12;100720.61;;;13.45;100.00
56681;BME280;42558;52.388;13.390;2022-10-16T01:16:15;100717.76;;;13.44;100.00
56681;BME280;42558;52.388;13.390;2022-10-16T01:18:52;100725.36;;;13.43;100.00
56681;BME280;42558;52.388;13.390;2022-10-16T01:21:36;100728.19;;;13.39;100.00
56681;BME280;42558;52.388;13.390;2022-10-16T01:27:21;100731.71;;;13.40;100.00
56681;BME280;42558;52.388;13.390;2022-10-16T01:32:43;100746.35;;;13.27;100.00
56681;BME280;42558;52.388;13.390;2022-10-16T01:35:32;100751.45;;;13.21;100.00
56681;BME280;42558;52.388;13.390;2022-10-16T01:38:16;100749.28;;;13.16;100.00
56681;BME280;42558;52.388;13.390;2022-10-16T01:40:54;100756.15;;;13.12;100.00
56681;BME280;42558;52.388;13.390;2022-10-16T01:43:57;100761.08;;;13.06;100.00
56681;BME280;42558;52.388;13.390;2022-10-16T01:46:31;100763.37;;;13.09;100.00
56681;BME280;42558;52.388;13.390;2022-10-16T01:49:02;100770.27;;;13.07;100.00
56681;BME280;42558;52.388;13.390;2022-10-16T01:51:30;100765.14;;;13.04;100.00
56681;BME280;42558;52.388;13.390;2022-10-16T01:54:00;100762.67;;;13.04;100.00
56681;BME280;42558;52.388;13.390;2022-10-16T01:56:29;100768.11;;;13.01;100.00
56681;BME280;42558;52.388;13.390;2022-10-16T01:59:06;100767.98;;;13.08;100.00
56681;BME280;42558;52.388;13.390;2022-10-16T02:01:37;100769.81;;;13.24;100.00
56681;BME280;42558;52.388;13.390;2022-10-16T02:04:17;100772.31;;;13.31;100.00
56681;BME280;42558;52.388;13.390;2022-10-16T02:06:45;100772.12;;;13.30;100.00
56681;BME280;42558;52.388;13.390;2022-10-16T02:09:11;100775.12;;;13.31;100.00
56681;BME280;42558;52.388;13.390;2022-10-16T02:11:38;100784.33;;;13.32;100.00
56681;BME280;42558;52.388;13.390;2022-10-16T02:14:06;100786.27;;;13.35;100.00
56681;BME280;42558;52.388;13.390;2022-10-16T02:16:42;100792.45;;;13.35;100.00
56681;BME280;42558;52.388;13.390;2022-10-16T02:19:12;100794.74;;;13.34;100.00
56681;BME280;42558;52.388;13.390;2022-10-16T02:21:54;100791.56;;;13.34;100.00
56681;BME280;42558;52.388;13.390;2022-10-16T02:24:51;100789.28;;;13.40;100.00
56681;BME280;42558;52.388;13.390;2022-10-16T02:27:49;100791.95;;;13.45;100.00
56681;BME280;42558;52.388;13.390;2022-10-16T02:30:36;100781.70;;;13.49;100.00
56681;BME280;42558;52.388;13.390;2022-10-16T02:33:08;100776.41;;;13.49;100.00
56681;BME280;42558;52.388;13.390;2022-10-16T02:35:37;100783.47;;;13.44;100.00
56681;BME280;42558;52.388;13.390;2022-10-16T02:38:06;100786.80;;;13.34;100.00
56681;BME280;42558;52.388;13.390;2022-10-16T02:40:34;100790.52;;;13.35;100.00
56681;BME280;42558;52.388;13.390;2022-10-16T02:43:04;100791.73;;;13.35;100.00
56681;BME280;42558;52.388;13.390;2022-10-16T02:45:31;100788.39;;;13.33;100.00
56681;BME280;42558;52.388;13.390;2022-10-16T02:47:58;100788.38;;;13.31;100.00
56681;BME280;42558;52.388;13.390;2022-10-16T02:50:24;100788.39;;;13.32;100.00
56681;BME280;42558;52.388;13.390;2022-10-16T02:52:51;100790.48;;;13.28;100.00
56681;BME280;42558;52.388;13.390;2022-10-16T02:55:18;100795.26;;;13.25;100.00
56681;BME280;42558;52.388;13.390;2022-10-16T02:57:45;100794.19;;;13.23;100.00
56681;BME280;42558;52.388;13.390;2022-10-16T03:00:16;100793.95;;;13.19;100.00
56681;BME280;42558;52.388;13.390;2022-10-16T03:02:43;100792.35;;;13.14;100.00
56681;BME280;42558;52.388;13.390;2022-10-16T03:05:10;100797.11;;;13.12;100.00
56681;BME280;42558;52.388;13.390;2022-10-16T03:07:37;100802.20;;;13.06;100.00
56681;BME280;42558;52.388;13.390;2022-10-16T03:10:05;100806.77;;;12.99;100.00
56681;BME280;42558;52.388;13.390;2022-10-16T03:12:32;100814.16;;;12.96;100.00
56681;BME280;42558;52.388;13.390;2022-10-16T03:14:58;100822.63;;;12.92;100.00
56681;BME280;42558;52.388;13.390;2022-10-16T03:17:25;100828.27;;;12.91;100.00
56681;BME280;42558;52.388;13.390;2022-10-16T03:19:52;100831.40;;;12.88;100.00
56681;BME280;42558;52.388;13.390;2022-10-16T03:22:19;100817.47;;;12.87;100.00
56681;BME280;42558;52.388;13.390;2022-10-16T03:24:46;100809.01;;;12.86;100.00
56681;BME280;42558;52.388;13.390;2022-10-16T03:27:12;100810.79;;;12.93;100.00
56681;BME280;42558;52.388;13.390;2022-10-16T03:29:39;100816.42;;;12.90;100.00
56681;BME280;42558;52.388;13.390;2022-10-16T03:32:06;100824.00;;;12.88;100.00
56681;BME280;42558;52.388;13.390;2022-10-16T03:34:32;100828.39;;;12.83;100.00
56681;BME280;42558;52.388;13.390;2022-10-16T03:36:59;100835.08;;;12.80;100.00
56681;BME280;42558;52.388;13.390;2022-10-16T03:39:26;100840.70;;;12.75;100.00
56681;BME280;42558;52.388;13.390;2022-10-16T03:41:53;100845.58;;;12.68;100.00
56681;BME280;42558;52.388;13.390;2022-10-16T03:44:20;100843.50;;;12.71;100.00
56681;BME280;42558;52.388;13.390;2022-10-16T03:46:46;100843.63;;;12.65;100.00
56681;BME280;42558;52.388;13.390;2022-10-16T03:49:13;100848.89;;;12.60;100.00
56681;BME280;42558;52.388;13.390;2022-10-16T03:51:40;100853.30;;;12.60;100.00
56681;BME280;42558;52.388;13.390;2022-10-16T03:54:06;100848.69;;;12.55;100.00
56681;BME280;42558;52.388;13.390;2022-10-16T03:56:33;100852.70;;;12.50;100.00
56681;BME280;42558;52.388;13.390;2022-10-16T03:59:00;100861.38;;;12.55;100.00
56681;BME280;42558;52.388;13.390;2022-10-16T04:01:26;100866.33;;;12.54;100.00
56681;BME280;42558;52.388;13.390;2022-10-16T04:03:53;100874.42;;;12.54;100.00
56681;BME280;42558;52.388;13.390;2022-10-16T04:06:20;100879.35;;;12.52;100.00
56681;BME280;42558;52.388;13.390;2022-10-16T04:08:47;100892.17;;;12.47;100.00
56681;BME280;42558;52.388;13.390;2022-10-16T04:11:13;100890.55;;;12.43;100.00
56681;BME280;42558;52.388;13.390;2022-10-16T04:13:40;100882.30;;;12.49;100.00
56681;BME280;42558;52.388;13.390;2022-10-16T04:16:07;100881.60;;;12.49;100.00
56681;BME280;42558;52.388;13.390;2022-10-16T04:18:34;100878.65;;;12.52;100.00
56681;BME280;42558;52.388;13.390;2022-10-16T04:21:06;100876.02;;;12.56;100.00
56681;BME280;42558;52.388;13.390;2022-10-16T04:23:33;100874.83;;;12.60;100.00
56681;BME280;42558;52.388;13.390;2022-10-16T04:26:00;100874.77;;;12.54;100.00
56681;BME280;42558;52.388;13.390;2022-10-16T04:28:27;100872.48;;;12.55;100.00
56681;BME280;42558;52.388;13.390;2022-10-16T04:30:55;100877.42;;;12.55;100.00
56681;BME280;42558;52.388;13.390;2022-10-16T04:33:22;100870.86;;;12.50;100.00
56681;BME280;42558;52.388;13.390;2022-10-16T04:35:56;100866.83;;;12.50;100.00
56681;BME280;42558;52.388;13.390;2022-10-16T04:38:23;100853.20;;;12.46;100.00
56681;BME280;42558;52.388;13.390;2022-10-16T04:40:49;100850.04;;;12.49;100.00
56681;BME280;42558;52.388;13.390;2022-10-16T04:43:16;100854.61;;;12.47;100.00
56681;BME280;42558;52.388;13.390;2022-10-16T04:45:43;100857.97;;;12.48;100.00
56681;BME280;42558;52.388;13.390;2022-10-16T04:48:10;100861.48;;;12.45;100.00
56681;BME280;42558;52.388;13.390;2022-10-16T04:50:36;100861.28;;;12.42;100.00
56681;BME280;42558;52.388;13.390;2022-10-16T04:53:03;100860.56;;;12.41;100.00
56681;BME280;42558;52.388;13.390;2022-10-16T04:55:30;100863.35;;;12.37;100.00
56681;BME280;42558;52.388;13.390;2022-10-16T04:57:56;100860.98;;;12.28;100.00
56681;BME280;42558;52.388;13.390;2022-10-16T05:00:23;100860.98;;;12.26;100.00
56681;BME280;42558;52.388;13.390;2022-10-16T05:02:50;100865.74;;;12.27;100.00
56681;BME280;42558;52.388;13.390;2022-10-16T05:05:18;100872.77;;;12.23;100.00
56681;BME280;42558;52.388;13.390;2022-10-16T05:07:48;100881.20;;;12.18;100.00
56681;BME280;42558;52.388;13.390;2022-10-16T05:10:16;100891.77;;;12.18;100.00
56681;BME280;42558;52.388;13.390;2022-10-16T05:12:43;100900.72;;;12.15;100.00
56681;BME280;42558;52.388;13.390;2022-10-16T05:15:10;100901.75;;;12.12;100.00
56681;BME280;42558;52.388;13.390;2022-10-16T05:17:37;100898.05;;;12.13;100.00
56681;BME280;42558;52.388;13.390;2022-10-16T05:20:11;100903.17;;;12.15;100.00
56681;BME280;42558;52.388;13.390;2022-10-16T05:22:38;100909.30;;;12.10;100.00
56681;BME280;42558;52.388;13.390;2022-10-16T05:25:05;100913.69;;;12.10;100.00
56681;BME280;42558;52.388;13.390;2022-10-16T05:27:32;100914.10;;;12.14;100.00
56681;BME280;42558;52.388;13.390;2022-10-16T05:29:59;100908.58;;;12.27;100.00
56681;BME280;42558;52.388;13.390;2022-10-16T05:32:25;100895.77;;;12.32;100.00
56681;BME280;42558;52.388;13.390;2022-10-16T05:34:52;100896.60;;;12.27;100.00
56681;BME280;42558;52.388;13.390;2022-10-16T05:37:19;100892.58;;;12.30;100.00
56681;BME280;42558;52.388;13.390;2022-10-16T05:39:46;100891.71;;;12.32;100.00
56681;BME280;42558;52.388;13.390;2022-10-16T05:42:13;100895.36;;;12.28;100.00
56681;BME280;42558;52.388;13.390;2022-10-16T05:44:43;100897.99;;;12.24;100.00
56681;BME280;42558;52.388;13.390;2022-10-16T05:47:10;100900.46;;;12.24;100.00
56681;BME280;42558;52.388;13.390;2022-10-16T05:49:38;100909.08;;;12.23;100.00
56681;BME280;42558;52.388;13.390;2022-10-16T05:52:07;100918.66;;;12.29;100.00
56681;BME280;42558;52.388;13.390;2022-10-16T05:54:34;100921.06;;;12.44;100.00
56681;BME280;42558;52.388;13.390;2022-10-16T05:57:00;100916.20;;;12.52;100.00
56681;BME280;42558;52.388;13.390;2022-10-16T05:59:28;100916.92;;;12.56;100.00
56681;BME280;42558;52.388;13.390;2022-10-16T06:01:55;100909.04;;;12.59;100.00
56681;BME280;42558;52.388;13.390;2022-10-16T06:04:21;100904.64;;;12.63;100.00
56681;BME280;42558;52.388;13.390;2022-10-16T06:06:48;100906.23;;;12.64;100.00
56681;BME280;42558;52.388;13.390;2022-10-16T06:09:15;100907.81;;;12.62;100.00
56681;BME280;42558;52.388;13.390;2022-10-16T06:11:41;100916.83;;;12.64;100.00
56681;BME280;42558;52.388;13.390;2022-10-16T06:14:08;100922.70;;;12.71;100.00
56681;BME280;42558;52.388;13.390;2022-10-16T06:16:37;100922.90;;;12.74;100.00
56681;BME280;42558;52.388;13.390;2022-10-16T06:19:04;100924.73;;;12.83;100.00
56681;BME280;42558;52.388;13.390;2022-10-16T06:21:33;100920.70;;;12.88;100.00
56681;BME280;42558;52.388;13.390;2022-10-16T06:24:00;100922.33;;;12.93;100.00
56681;BME280;42558;52.388;13.390;2022-10-16T06:26:30;100923.23;;;12.96;100.00
56681;BME280;42558;52.388;13.390;2022-10-16T06:28:59;100926.08;;;12.99;100.00
56681;BME280;42558;52.388;13.390;2022-10-16T06:31:28;100930.16;;;13.04;100.00
56681;BME280;42558;52.388;13.390;2022-10-16T06:33:58;100932.83;;;13.07;100.00
56681;BME280;42558;52.388;13.390;2022-10-16T06:36:26;100931.77;;;13.09;100.00
56681;BME280;42558;52.388;13.390;2022-10-16T06:38:53;100932.84;;;13.11;100.00
56681;BME280;42558;52.388;13.390;2022-10-16T06:41:22;100940.98;;;13.13;100.00
56681;BME280;42558;52.388;13.390;2022-10-16T06:43:50;100951.05;;;13.12;100.00
56681;BME280;42558;52.388;13.390;2022-10-16T06:46:23;100959.70;;;13.16;100.00
56681;BME280;42558;52.388;13.390;2022-10-16T06:48:50;100966.16;;;13.24;100.00
56681;BME280;42558;52.388;13.390;2022-10-16T06:51:20;100960.86;;;13.27;100.00
56681;BME280;42558;52.388;13.390;2022-10-16T06:53:51;100965.11;;;13.28;100.00
56681;BME280;42558;52.388;13.390;2022-10-16T06:56:34;100970.97;;;13.32;100.00
56681;BME280;42558;52.388;13.390;2022-10-16T06:59:01;100976.14;;;13.39;100.00
56681;BME280;42558;52.388;13.390;2022-10-16T07:01:29;100975.80;;;13.44;100.00
56681;BME280;42558;52.388;13.390;2022-10-16T07:03:56;100974.63;;;13.54;100.00
56681;BME280;42558;52.388;13.390;2022-10-16T07:06:25;100972.55;;;13.70;100.00
56681;BME280;42558;52.388;13.390;2022-10-16T07:08:53;100975.91;;;14.25;100.00
56681;BME280;42558;52.388;13.390;2022-10-16T07:11:22;100983.77;;;14.57;100.00
56681;BME280;42558;52.388;13.390;2022-10-16T07:13:51;100994.90;;;14.47;100.00
56681;BME280;42558;52.388;13.390;2022-10-16T07:16:26;101004.58;;;14.35;100.00
56681;BME280;42558;52.388;13.390;2022-10-16T07:18:58;101007.42;;;14.36;100.00
56681;BME280;42558;52.388;13.390;2022-10-16T07:21:33;100997.89;;;14.42;100.00
56681;BME280;42558;52.388;13.390;2022-10-16T07:24:10;100988.73;;;14.71;100.00
56681;BME280;42558;52.388;13.390;2022-10-16T07:26:37;100991.34;;;15.33;100.00
56681;BME280;42558;52.388;13.390;2022-10-16T07:29:15;100994.20;;;15.15;100.00
56681;BME280;42558;52.388;13.390;2022-10-16T07:31:42;101000.13;;;15.58;100.00
56681;BME280;42558;52.388;13.390;2022-10-16T07:34:12;101003.67;;;17.89;99.51
56681;BME280;42558;52.388;13.390;2022-10-16T07:36:40;101002.27;;;18.19;93.06
56681;BME280;42558;52.388;13.390;2022-10-16T07:39:08;101002.84;;;18.15;91.59
56681;BME280;42558;52.388;13.390;2022-10-16T07:41:35;101001.47;;;16.52;98.36
56681;BME280;42558;52.388;13.390;2022-10-16T07:44:04;101004.25;;;16.01;100.00
56681;BME280;42558;52.388;13.390;2022-10-16T07:46:31;101001.95;;;16.02;100.00
56681;BME280;42558;52.388;13.390;2022-10-16T07:49:00;100998.75;;;16.03;100.00
56681;BME280;42558;52.388;13.390;2022-10-16T07:51:26;101003.67;;;15.71;100.00
56681;BME280;42558;52.388;13.390;2022-10-16T07:53:54;101010.05;;;15.60;100.00
56681;BME280;42558;52.388;13.390;2022-10-16T07:56:21;101010.70;;;16.19;100.00
56681;BME280;42558;52.388;13.390;2022-10-16T07:58:49;101005.82;;;16.05;100.00
56681;BME280;42558;52.388;13.390;2022-10-16T08:01:17;101004.73;;;15.68;100.00
56681;BME280;42558;52.388;13.390;2022-10-16T08:03:50;101008.48;;;15.56;100.00
56681;BME280;42558;52.388;13.390;2022-10-16T08:06:20;101012.23;;;15.45;100.00
56681;BME280;42558;52.388;13.390;2022-10-16T08:08:55;101017.17;;;15.46;100.00
56681;BME280;42558;52.388;13.390;2022-10-16T08:11:22;101024.62;;;15.47;100.00
56681;BME280;42558;52.388;13.390;2022-10-16T08:13:49;101026.91;;;15.52;100.00
56681;BME280;42558;52.388;13.390;2022-10-16T08:16:16;101029.05;;;15.52;100.00
56681;BME280;42558;52.388;13.390;2022-10-16T08:18:43;101041.96;;;15.63;100.00
56681;BME280;42558;52.388;13.390;2022-10-16T08:21:17;101039.82;;;15.73;100.00
56681;BME280;42558;52.388;13.390;2022-10-16T08:23:47;101038.23;;;15.73;100.00
56681;BME280;42558;52.388;13.390;2022-10-16T08:26:23;101039.09;;;15.81;100.00
56681;BME280;42558;52.388;13.390;2022-10-16T08:28:50;101046.00;;;15.84;100.00
56681;BME280;42558;52.388;13.390;2022-10-16T08:31:18;101047.20;;;15.96;100.00
56681;BME280;42558;52.388;13.390;2022-10-16T08:33:45;101043.24;;;16.05;100.00
56681;BME280;42558;52.388;13.390;2022-10-16T08:36:15;101041.52;;;16.32;100.00
56681;BME280;42558;52.388;13.390;2022-10-16T08:38:43;101044.64;;;16.45;100.00
56681;BME280;42558;52.388;13.390;2022-10-16T08:48:30;101044.61;;;16.50;100.00
56681;BME280;42558;52.388;13.390;2022-10-16T08:51:03;101041.05;;;16.52;100.00
56681;BME280;42558;52.388;13.390;2022-10-16T08:53:52;101044.43;;;16.51;100.00
56681;BME280;42558;52.388;13.390;2022-10-16T08:56:20;101055.98;;;16.48;100.00
56681;BME280;42558;52.388;13.390;2022-10-16T08:58:48;101058.17;;;16.39;100.00
56681;BME280;42558;52.388;13.390;2022-10-16T09:01:22;101060.48;;;16.39;100.00
56681;BME280;42558;52.388;13.390;2022-10-16T09:04:14;101060.48;;;16.39;100.00
56681;BME280;42558;52.388;13.390;2022-10-16T09:09:49;101071.45;;;16.43;100.00
56681;BME280;42558;52.388;13.390;2022-10-16T09:12:41;101073.84;;;16.60;100.00
56681;BME280;42558;52.388;13.390;2022-10-16T09:15:39;101075.55;;;16.76;99.91
56681;BME280;42558;52.388;13.390;2022-10-16T09:21:28;101095.39;;;17.07;98.54
56681;BME280;42558;52.388;13.390;2022-10-16T09:24:19;101092.25;;;17.00;98.06
56681;BME280;42558;52.388;13.390;2022-10-16T09:26:51;101091.05;;;16.94;98.40
56681;BME280;42558;52.388;13.390;2022-10-16T09:29:21;101097.48;;;16.87;97.11
56681;BME280;42558;52.388;13.390;2022-10-16T09:31:50;101085.98;;;16.84;97.90
56681;BME280;42558;52.388;13.390;2022-10-16T09:34:32;101080.00;;;16.98;97.99
56681;BME280;42558;52.388;13.390;2022-10-16T09:37:09;101081.81;;;17.16;96.55
56681;BME280;42558;52.388;13.390;2022-10-16T09:39:51;101085.83;;;17.25;96.20
56681;BME280;42558;52.388;13.390;2022-10-16T09:42:32;101083.05;;;17.39;95.13
56681;BME280;42558;52.388;13.390;2022-10-16T09:45:01;101097.77;;;17.40;94.02
56681;BME280;42558;52.388;13.390;2022-10-16T09:47:31;101100.83;;;17.55;94.35
56681;BME280;42558;52.388;13.390;2022-10-16T09:50:21;101110.15;;;17.47;93.50
56681;BME280;42558;52.388;13.390;2022-10-16T09:52:49;101113.86;;;17.29;94.42
56681;BME280;42558;52.388;13.390;2022-10-16T09:55:18;101113.89;;;17.27;93.44
56681;BME280;42558;52.388;13.390;2022-10-16T09:57:52;101116.11;;;17.36;92.84
56681;BME280;42558;52.388;13.390;2022-10-16T10:00:21;101115.77;;;17.55;94.02
56681;BME280;42558;52.388;13.390;2022-10-16T10:02:49;101117.75;;;17.53;94.86
56681;BME280;42558;52.388;13.390;2022-10-16T10:05:28;101118.86;;;17.67;92.84
56681;BME280;42558;52.388;13.390;2022-10-16T10:08:02;101130.98;;;18.19;90.65
56681;BME280;42558;52.388;13.390;2022-10-16T10:10:41;101131.13;;;18.20;87.07
56681;BME280;42558;52.388;13.390;2022-10-16T10:13:24;101132.94;;;18.60;87.48
56681;BME280;42558;52.388;13.390;2022-10-16T10:15:53;101140.95;;;19.00;85.53
56681;BME280;42558;52.388;13.390;2022-10-16T10:18:22;101136.06;;;19.05;84.60
56681;BME280;42558;52.388;13.390;2022-10-16T10:21:01;101136.27;;;19.03;84.81
56681;BME280;42558;52.388;13.390;2022-10-16T10:23:30;101132.98;;;18.98;83.63
56681;BME280;42558;52.388;13.390;2022-10-16T10:26:20;101137.52;;;18.78;83.25
56681;BME280;42558;52.388;13.390;2022-10-16T10:29:05;101141.77;;;18.23;82.70
56681;BME280;42558;52.388;13.390;2022-10-16T10:36:15;101140.11;;;18.13;85.74
56681;BME280;42558;52.388;13.390;2022-10-16T10:39:19;101134.25;;;18.26;84.00
56681;BME280;42558;52.388;13.390;2022-10-16T10:41:59;101137.95;;;18.15;82.27
56681;BME280;42558;52.388;13.390;2022-10-16T10:48:12;101142.39;;;18.31;83.50
56681;BME280;42558;52.388;13.390;2022-10-16T10:51:10;101153.58;;;18.18;81.56
56681;BME280;42558;52.388;13.390;2022-10-16T10:54:13;101145.48;;;18.39;82.31
56681;BME280;42558;52.388;13.390;2022-10-16T10:57:06;101149.98;;;18.65;80.51
56681;BME280;42558;52.388;13.390;2022-10-16T11:00:02;101152.90;;;18.73;79.85
56681;BME280;42558;52.388;13.390;2022-10-16T11:03:13;101153.08;;;18.61;77.81
56681;BME280;42558;52.388;13.390;2022-10-16T11:05:57;101148.09;;;18.45;79.97
56681;BME280;42558;52.388;13.390;2022-10-16T11:08:41;101148.42;;;18.46;79.35
56681;BME280;42558;52.388;13.390;2022-10-16T11:14:17;101156.61;;;18.34;80.20
56681;BME280;42558;52.388;13.390;2022-10-16T11:16:58;101160.09;;;18.39;79.14
56681;BME280;42558;52.388;13.390;2022-10-16T11:20:12;101166.89;;;18.80;79.54
56681;BME280;42558;52.388;13.390;2022-10-16T11:22:51;101160.63;;;18.95;77.40
56681;BME280;42558;52.388;13.390;2022-10-16T11:25:28;101164.39;;;19.06;76.46
56681;BME280;42558;52.388;13.390;2022-10-16T11:28:15;101168.52;;;19.05;77.22
56681;BME280;42558;52.388;13.390;2022-10-16T11:33:51;101161.69;;;19.08;75.75
56681;BME280;42558;52.388;13.390;2022-10-16T11:47:30;101156.61;;;19.57;73.17
56681;BME280;42558;52.388;13.390;2022-10-16T11:50:31;101154.95;;;19.62;72.78
56681;BME280;42558;52.388;13.390;2022-10-16T11:53:44;101154.81;;;19.48;72.38
56681;BME280;42558;52.388;13.390;2022-10-16T11:56:18;101157.86;;;19.47;71.03
56681;BME280;42558;52.388;13.390;2022-10-16T11:58:56;101162.15;;;19.34;70.77
56681;BME280;42558;52.388;13.390;2022-10-16T12:01:37;101160.17;;;19.24;71.34
56681;BME280;42558;52.388;13.390;2022-10-16T12:07:05;101160.52;;;19.01;71.18
56681;BME280;42558;52.388;13.390;2022-10-16T12:09:38;101164.83;;;19.00;71.58
56681;BME280;42558;52.388;13.390;2022-10-16T12:12:39;101169.81;;;19.13;70.40
56681;BME280;42558;52.388;13.390;2022-10-16T12:15:27;101173.52;;;19.14;70.21
56681;BME280;42558;52.388;13.390;2022-10-16T12:18:25;101174.77;;;19.03;71.45
56681;BME280;42558;52.388;13.390;2022-10-16T12:20:57;101179.70;;;18.94;72.54
56681;BME280;42558;52.388;13.390;2022-10-16T12:23:51;101179.27;;;18.87;71.92
56681;BME280;42558;52.388;13.390;2022-10-16T12:26:29;101178.86;;;18.79;71.76
56681;BME280;42558;52.388;13.390;2022-10-16T12:29:28;101178.48;;;18.79;71.43
56681;BME280;42558;52.388;13.390;2022-10-16T12:31:56;101180.46;;;18.91;72.40
56681;BME280;42558;52.388;13.390;2022-10-16T12:34:42;101180.92;;;18.96;71.83
56681;BME280;42558;52.388;13.390;2022-10-16T12:37:21;101180.94;;;19.08;72.25
56681;BME280;42558;52.388;13.390;2022-10-16T12:39:51;101187.56;;;19.17;70.82
56681;BME280;42558;52.388;13.390;2022-10-16T12:42:33;101191.02;;;19.25;72.49
56681;BME280;42558;52.388;13.390;2022-10-16T12:45:29;101186.92;;;19.23;69.60
56681;BME280;42558;52.388;13.390;2022-10-16T12:48:01;101187.70;;;19.32;70.77
56681;BME280;42558;52.388;13.390;2022-10-16T12:50:38;101189.20;;;19.38;70.69
56681;BME280;42558;52.388;13.390;2022-10-16T12:53:23;101191.42;;;19.44;69.31
56681;BME280;42558;52.388;13.390;2022-10-16T12:56:18;101184.27;;;19.46;67.78
56681;BME280;42558;52.388;13.390;2022-10-16T12:59:09;101180.58;;;19.54;66.76
56681;BME280;42558;52.388;13.390;2022-10-16T13:04:57;101190.50;;;19.34;68.73
56681;BME280;42558;52.388;13.390;2022-10-16T13:07:44;101195.45;;;19.26;67.43
56681;BME280;42558;52.388;13.390;2022-10-16T13:10:48;101203.13;;;19.25;68.49
56681;BME280;42558;52.388;13.390;2022-10-16T13:17:13;101211.28;;;19.04;68.51
56681;BME280;42558;52.388;13.390;2022-10-16T13:28:39;101227.50;;;19.16;66.70
56681;BME280;42558;52.388;13.390;2022-10-16T13:31:18;101229.69;;;19.14;66.09
56681;BME280;42558;52.388;13.390;2022-10-16T13:33:51;101234.35;;;19.12;66.62
56681;BME280;42558;52.388;13.390;2022-10-16T13:36:26;101235.66;;;19.07;66.67
56681;BME280;42558;52.388;13.390;2022-10-16T13:39:29;101234.17;;;19.24;66.70
56681;BME280;42558;52.388;13.390;2022-10-16T13:42:28;101237.23;;;19.10;66.92
56681;BME280;42558;52.388;13.390;2022-10-16T13:44:56;101238.20;;;19.16;66.19
56681;BME280;42558;52.388;13.390;2022-10-16T13:47:29;101240.48;;;19.32;65.97
56681;BME280;42558;52.388;13.390;2022-10-16T13:50:11;101241.52;;;19.45;65.68
56681;BME280;42558;52.388;13.390;2022-10-16T13:52:38;101238.83;;;19.60;65.37
56681;BME280;42558;52.388;13.390;2022-10-16T13:55:14;101240.23;;;19.72;64.92
56681;BME280;42558;52.388;13.390;2022-10-16T13:57:42;101245.13;;;19.79;64.88
56681;BME280;42558;52.388;13.390;2022-10-16T14:00:28;101251.71;;;19.69;65.06
56681;BME280;42558;52.388;13.390;2022-10-16T14:03:13;101249.99;;;19.39;66.40
56681;BME280;42558;52.388;13.390;2022-10-16T14:05:52;101249.16;;;19.35;66.40
56681;BME280;42558;52.388;13.390;2022-10-16T14:08:20;101248.65;;;19.34;67.69
56681;BME280;42558;52.388;13.390;2022-10-16T14:10:51;101250.14;;;19.42;67.85
56681;BME280;42558;52.388;13.390;2022-10-16T14:13:30;101253.70;;;19.66;67.55
56681;BME280;42558;52.388;13.390;2022-10-16T14:16:04;101256.80;;;19.74;66.72